createdAt,value
2018-06-10T00:04:43.376Z,18.90
2018-06-10T00:09:45.558Z,18.90
2018-06-10T00:14:47.712Z,18.90
2018-06-10T00:19:49.879Z,18.90
2018-06-10T00:24:52.026Z,19.00
2018-06-10T00:29:54.192Z,19.00
2018-06-10T00:34:56.327Z,19.00
2018-06-10T00:39:58.701Z,19.00
2018-06-10T00:45:00.841Z,18.90
2018-06-10T00:50:03.017Z,18.90
2018-06-10T00:55:05.177Z,18.90
2018-06-10T01:00:07.343Z,18.90
2018-06-10T01:05:09.471Z,18.90
2018-06-10T01:10:11.589Z,19.00
2018-06-10T01:15:13.731Z,19.00
2018-06-10T01:20:15.889Z,18.90
2018-06-10T01:25:18.081Z,18.90
2018-06-10T01:30:20.229Z,18.90
2018-06-10T01:35:22.366Z,18.90
2018-06-10T01:40:24.494Z,18.90
2018-06-10T01:45:26.681Z,18.90
2018-06-10T01:50:28.842Z,18.90
2018-06-10T01:55:30.996Z,18.70
2018-06-10T02:00:33.165Z,18.60
2018-06-10T02:05:35.307Z,18.80
2018-06-10T02:10:37.443Z,18.80
2018-06-10T02:15:39.620Z,18.60
2018-06-10T02:20:41.793Z,18.60
2018-06-10T02:25:43.927Z,18.60
2018-06-10T02:30:46.803Z,18.50
2018-06-10T02:35:49.293Z,18.60
2018-06-10T02:40:51.450Z,18.50
2018-06-10T02:45:53.626Z,18.50
2018-06-10T02:50:55.790Z,18.50
2018-06-10T02:55:58.333Z,18.40
2018-06-10T03:01:00.519Z,18.30
2018-06-10T03:06:04.310Z,18.40
2018-06-10T03:11:06.501Z,18.20
2018-06-10T03:16:08.680Z,18.30
2018-06-10T03:21:10.842Z,18.30
2018-06-10T03:26:13.006Z,18.30
2018-06-10T03:31:15.180Z,18.20
2018-06-10T03:36:17.325Z,18.20
2018-06-10T03:41:19.475Z,18.20
2018-06-10T03:46:21.642Z,18.10
2018-06-10T03:51:23.802Z,18.20
2018-06-10T03:56:26.117Z,18.20
2018-06-10T04:01:28.253Z,18.20
2018-06-10T04:06:30.395Z,18.30
2018-06-10T04:11:32.533Z,18.40
2018-06-10T04:16:34.669Z,18.50
2018-06-10T04:21:36.801Z,18.30
2018-06-10T04:26:38.993Z,18.40
2018-06-10T04:31:41.190Z,18.40
2018-06-10T04:36:43.354Z,18.50
2018-06-10T04:41:45.517Z,18.80
2018-06-10T04:46:47.722Z,19.20
2018-06-10T04:51:49.913Z,19.40
2018-06-10T04:56:52.949Z,19.70
2018-06-10T05:01:55.126Z,19.90
2018-06-10T05:06:57.289Z,20.10
2018-06-10T05:11:59.486Z,20.30
2018-06-10T05:17:01.650Z,20.50
2018-06-10T05:22:03.840Z,20.60
2018-06-10T05:27:05.996Z,20.60
2018-06-10T05:32:08.167Z,20.50
2018-06-10T05:37:10.329Z,21.00
2018-06-10T05:42:13.109Z,20.60
2018-06-10T05:47:15.330Z,20.60
2018-06-10T05:52:17.534Z,21.00
2018-06-10T05:57:19.675Z,21.40
2018-06-10T06:02:21.943Z,21.40
2018-06-10T06:07:24.110Z,22.10
2018-06-10T06:12:26.259Z,22.40
2018-06-10T06:17:28.413Z,22.30
2018-06-10T06:22:30.549Z,22.80
2018-06-10T06:27:32.682Z,23.00
2018-06-10T06:32:34.873Z,23.60
2018-06-10T06:37:37.040Z,23.80
2018-06-10T06:42:39.212Z,24.00
2018-06-10T06:47:41.370Z,24.00
2018-06-10T06:52:43.554Z,23.60
2018-06-10T06:57:45.723Z,23.80
2018-06-10T07:02:47.883Z,24.20
2018-06-10T07:07:50.076Z,23.70
2018-06-10T07:12:52.226Z,23.40
2018-06-10T07:17:54.374Z,23.30
2018-06-10T07:22:56.547Z,24.10
2018-06-10T07:27:58.713Z,24.60
2018-06-10T07:33:00.867Z,24.20
2018-06-10T07:38:03.005Z,24.30
2018-06-10T07:43:05.174Z,24.70
2018-06-10T07:48:07.335Z,24.90
2018-06-10T07:53:09.500Z,24.60
2018-06-10T07:58:11.641Z,24.30
2018-06-10T08:03:13.780Z,24.60
2018-06-10T08:08:15.917Z,25.20
2018-06-10T08:13:18.053Z,24.90
2018-06-10T08:18:20.194Z,25.20
2018-06-10T08:23:22.359Z,26.10
2018-06-10T08:28:24.498Z,26.80
2018-06-10T08:33:26.657Z,26.80
2018-06-10T08:38:28.830Z,27.10
2018-06-10T08:43:31.004Z,27.40
2018-06-10T08:48:33.173Z,27.30
2018-06-10T08:53:35.354Z,27.80
2018-06-10T08:58:37.531Z,27.90
2018-06-10T09:03:39.706Z,27.20
2018-06-10T09:08:41.935Z,26.60
2018-06-10T09:13:44.061Z,26.40
2018-06-10T09:18:46.221Z,26.50
2018-06-10T09:23:48.391Z,27.50
2018-06-10T09:28:50.581Z,28.40
2018-06-10T09:33:52.757Z,27.10
2018-06-10T09:38:54.930Z,27.40
2018-06-10T09:43:57.106Z,27.70
2018-06-10T09:48:59.328Z,27.20
2018-06-10T09:54:01.510Z,27.70
2018-06-10T09:59:03.708Z,27.00
2018-06-10T10:04:05.877Z,28.30
2018-06-10T10:09:08.038Z,28.20
2018-06-10T10:14:10.194Z,28.40
2018-06-10T10:19:12.345Z,28.20
2018-06-10T10:24:14.518Z,28.70
2018-06-10T10:29:16.694Z,29.00
2018-06-10T10:34:18.821Z,28.60
2018-06-10T10:39:20.966Z,28.30
2018-06-10T10:44:23.170Z,28.80
2018-06-10T10:49:25.301Z,29.10
2018-06-10T10:54:27.475Z,28.60
2018-06-10T10:59:29.590Z,28.90
2018-06-10T11:04:31.738Z,28.80
2018-06-10T11:09:33.877Z,29.20
2018-06-10T11:14:36.002Z,28.90
2018-06-10T11:19:38.171Z,28.70
2018-06-10T11:24:40.320Z,27.80
2018-06-10T11:29:42.519Z,28.30
2018-06-10T11:34:44.712Z,28.80
2018-06-10T11:39:46.862Z,28.30
2018-06-10T11:44:49.056Z,28.60
2018-06-10T11:49:51.218Z,28.30
2018-06-10T11:54:53.421Z,28.80
2018-06-10T11:59:55.598Z,28.70
2018-06-10T12:04:59.255Z,28.80
2018-06-10T12:10:01.469Z,28.80
2018-06-10T12:15:03.700Z,29.20
2018-06-10T12:20:05.905Z,29.10
2018-06-10T12:25:08.087Z,28.50
2018-06-10T12:30:10.241Z,28.80
2018-06-10T12:35:13.848Z,28.80
2018-06-10T12:40:16.013Z,29.00
2018-06-10T12:45:18.205Z,29.00
2018-06-10T12:50:20.377Z,28.80
2018-06-10T12:55:22.591Z,29.10
2018-06-10T13:00:24.766Z,29.50
2018-06-10T13:05:26.933Z,29.30
2018-06-10T13:10:29.133Z,29.40
2018-06-10T13:15:31.325Z,29.20
2018-06-10T13:20:33.497Z,28.20
2018-06-10T13:25:35.661Z,29.00
2018-06-10T13:30:37.862Z,29.40
2018-06-10T13:35:40.063Z,29.70
2018-06-10T13:40:42.262Z,29.40
2018-06-10T13:45:44.447Z,29.30
2018-06-10T13:50:47.344Z,29.70
2018-06-10T13:55:49.586Z,29.60
2018-06-10T14:00:51.709Z,29.50
2018-06-10T14:05:53.893Z,29.70
2018-06-10T14:10:56.113Z,29.70
2018-06-10T14:15:58.297Z,28.60
2018-06-10T14:21:00.476Z,28.90
2018-06-10T14:26:02.692Z,29.00
2018-06-10T14:31:04.891Z,29.00
2018-06-10T14:36:07.058Z,28.90
2018-06-10T14:41:09.227Z,29.20
2018-06-10T14:46:11.402Z,29.00
2018-06-10T14:51:13.597Z,29.20
2018-06-10T14:56:15.781Z,29.40
2018-06-10T15:01:17.966Z,29.40
2018-06-10T15:06:20.169Z,29.40
2018-06-10T15:11:22.365Z,29.40
2018-06-10T15:16:24.637Z,29.20
2018-06-10T15:21:26.934Z,29.20
2018-06-10T15:26:29.121Z,29.00
2018-06-10T15:31:31.410Z,28.90
2018-06-10T15:36:33.571Z,28.90
2018-06-10T15:41:35.909Z,29.00
2018-06-10T15:46:38.105Z,29.30
2018-06-10T15:51:40.246Z,29.10
2018-06-10T15:56:42.421Z,28.80
2018-06-10T16:01:44.574Z,28.80
2018-06-10T16:06:46.725Z,28.60
2018-06-10T16:11:48.900Z,28.60
2018-06-10T16:16:51.134Z,28.60
2018-06-10T16:21:53.210Z,28.40
2018-06-10T16:31:57.560Z,28.40
2018-06-10T16:36:59.776Z,28.40
2018-06-10T16:42:01.934Z,28.00
2018-06-10T16:47:04.153Z,27.90
2018-06-10T16:52:06.342Z,27.80
2018-06-10T16:57:08.518Z,27.70
2018-06-10T17:02:10.671Z,27.70
2018-06-10T17:07:12.857Z,27.50
2018-06-10T17:12:15.036Z,27.50
2018-06-10T17:17:17.177Z,27.40
2018-06-10T17:22:19.359Z,27.40
2018-06-10T17:27:21.510Z,27.40
2018-06-10T17:32:24.039Z,27.30
2018-06-10T17:37:26.218Z,27.20
2018-06-10T17:42:28.373Z,27.20
2018-06-10T17:47:30.547Z,27.30
2018-06-10T17:52:32.772Z,27.10
2018-06-10T17:57:34.918Z,27.00
2018-06-10T18:02:37.078Z,27.00
2018-06-10T18:07:39.226Z,27.10
2018-06-10T18:12:41.391Z,26.90
2018-06-10T18:17:43.524Z,26.60
2018-06-10T18:22:45.674Z,26.30
2018-06-10T18:27:47.844Z,26.30
2018-06-10T18:32:50.309Z,26.30
2018-06-10T18:37:52.451Z,26.40
2018-06-10T18:42:54.589Z,26.40
2018-06-10T18:47:56.793Z,26.30
2018-06-10T18:52:58.913Z,26.30
2018-06-10T18:58:01.430Z,26.10
2018-06-10T19:03:03.638Z,25.90
2018-06-10T19:08:06.152Z,25.80
2018-06-10T19:13:08.288Z,25.60
2018-06-10T19:18:10.599Z,25.10
2018-06-10T19:23:12.770Z,25.10
2018-06-10T19:28:14.897Z,24.90
2018-06-10T19:33:17.074Z,24.70
2018-06-10T19:38:19.327Z,24.60
2018-06-10T19:43:21.481Z,24.60
2018-06-10T19:48:23.813Z,24.40
2018-06-10T19:53:26.367Z,24.30
2018-06-10T19:58:28.545Z,24.20
2018-06-10T20:03:30.861Z,24.30
2018-06-10T20:08:33.018Z,24.20
2018-06-10T20:13:35.349Z,24.10
2018-06-10T20:18:37.526Z,24.20
2018-06-10T20:23:39.745Z,24.20
2018-06-10T20:28:41.937Z,24.20
2018-06-10T20:33:44.093Z,24.20
2018-06-10T20:38:46.277Z,24.00
2018-06-10T20:43:48.469Z,23.90
2018-06-10T20:48:50.638Z,23.90
2018-06-10T20:53:52.806Z,23.70
2018-06-10T20:58:54.955Z,23.50
2018-06-10T21:03:57.166Z,23.30
2018-06-10T21:08:59.364Z,23.50
2018-06-10T21:14:01.531Z,23.60
2018-06-10T21:19:03.698Z,23.50
2018-06-10T21:24:05.890Z,23.70
2018-06-10T21:29:08.063Z,23.60
2018-06-10T21:34:10.235Z,23.50
2018-06-10T21:39:12.401Z,23.60
2018-06-10T21:44:14.530Z,23.50
2018-06-10T21:49:16.694Z,23.40
2018-06-10T21:54:18.817Z,23.40
2018-06-10T21:59:20.984Z,23.20
2018-06-10T22:04:23.147Z,23.30
2018-06-10T22:09:25.314Z,23.30
2018-06-10T22:14:27.494Z,23.00
2018-06-10T22:19:29.651Z,22.90
2018-06-10T22:24:31.786Z,23.10
2018-06-10T22:29:33.961Z,23.10
2018-06-10T22:34:36.133Z,23.00
2018-06-10T22:39:38.324Z,23.00
2018-06-10T22:44:40.434Z,22.70
2018-06-10T22:49:42.595Z,22.70
2018-06-10T22:54:46.590Z,22.50
2018-06-10T22:59:48.773Z,22.40
2018-06-10T23:04:50.953Z,22.40
2018-06-10T23:09:53.126Z,22.80
2018-06-10T23:14:55.310Z,22.80
2018-06-10T23:19:57.481Z,22.80
2018-06-10T23:24:59.709Z,22.60
2018-06-10T23:30:01.920Z,22.50
2018-06-10T23:35:04.104Z,22.50
2018-06-10T23:40:06.754Z,22.50
2018-06-10T23:45:08.909Z,22.40
2018-06-10T23:50:11.117Z,22.30
2018-06-10T23:55:13.311Z,21.90
